Time;durP1;ratioP1;P1;durP2;ratioP2;P2;SDS_P1;SDS_P2;PMS_P1;PMS_P2;Temp;Humidity;BMP_temperature;BMP_pressure;BME280_temperature;BME280_humidity;BME280_pressure;Samples;Min_cycle;Max_cycle;Signal;HPM_P1;HPM_P2
2023/09/14 00:01:25;;;;;;;7.00;2.90;;;;;;;15.91;77.57;102159.69;5115382;28;20149;-60
2023/09/14 00:03:52;;;;;;;5.82;2.80;;;;;;;15.75;78.29;102163.06;5115160;28;20119;-60
2023/09/14 00:06:17;;;;;;;7.55;3.30;;;;;;;15.66;79.01;102161.19;5115128;28;20080;-60
2023/09/14 00:08:42;;;;;;;9.35;3.17;;;;;;;15.61;79.26;102167.34;5115445;28;20476;-60
2023/09/14 00:11:08;;;;;;;5.45;3.15;;;;;;;15.58;79.38;102161.97;5114778;28;20370;-60
2023/09/14 00:13:33;;;;;;;6.07;3.53;;;;;;;15.56;79.17;102158.41;5114995;28;20034;-60
2023/09/14 00:15:59;;;;;;;4.32;2.55;;;;;;;15.56;79.12;102159.28;5115090;28;20453;-61
2023/09/14 00:18:24;;;;;;;8.15;2.90;;;;;;;15.57;78.97;102162.84;5115095;28;20193;-60
2023/09/14 00:20:52;;;;;;;6.88;2.70;;;;;;;15.61;78.78;102168.22;5114987;28;20019;-60
2023/09/14 00:23:18;;;;;;;5.00;2.70;;;;;;;15.59;78.91;102164.66;5114903;28;20042;-60
2023/09/14 00:25:43;;;;;;;8.32;3.10;;;;;;;15.49;79.22;102168.97;5114658;28;20047;-60
2023/09/14 00:28:09;;;;;;;6.80;2.75;;;;;;;15.51;79.38;102169.00;5114776;28;20366;-59
2023/09/14 00:30:34;;;;;;;3.97;2.55;;;;;;;15.58;79.20;102164.63;5114717;28;20070;-59
2023/09/14 00:33:00;;;;;;;7.18;2.85;;;;;;;15.68;78.81;102161.25;5114860;28;20020;-60
2023/09/14 00:35:25;;;;;;;6.32;3.10;;;;;;;15.63;78.64;102169.16;5114180;28;20020;-60
2023/09/14 00:37:50;;;;;;;5.10;2.67;;;;;;;15.53;78.61;102164.56;5114474;28;20551;-60
2023/09/14 00:40:17;;;;;;;5.00;2.33;;;;;;;15.48;79.08;102161.88;5114647;28;20038;-60
2023/09/14 00:42:52;;;;;;;4.95;2.40;;;;;;;15.47;78.61;102160.09;5114048;28;20031;-60
2023/09/14 00:45:21;;;;;;;5.75;2.40;;;;;;;15.37;79.04;102162.59;5114758;28;20035;-60
2023/09/14 00:47:52;;;;;;;4.28;2.78;;;;;;;15.24;79.81;102164.22;5114341;28;20495;-59
2023/09/14 00:50:19;;;;;;;4.70;2.60;;;;;;;15.15;79.92;102166.78;5114188;28;20042;-60
2023/09/14 00:52:49;;;;;;;5.03;2.83;;;;;;;15.02;80.33;102173.69;5114319;28;20015;-60
2023/09/14 00:55:20;;;;;;;8.95;3.00;;;;;;;14.96;80.65;102171.84;5114233;28;20031;-60
2023/09/14 00:57:48;;;;;;;8.70;3.30;;;;;;;14.97;81.06;102168.31;5114518;28;20032;-61
2023/09/14 01:00:16;;;;;;;5.30;2.88;;;;;;;14.97;80.69;102162.09;5114372;28;20038;-60
2023/09/14 01:02:42;;;;;;;7.63;2.78;;;;;;;15.06;80.60;102164.88;5114043;28;20038;-60
2023/09/14 01:05:08;;;;;;;6.70;2.83;;;;;;;15.07;80.30;102166.66;5114192;28;20020;-61
2023/09/14 01:07:34;;;;;;;5.20;2.80;;;;;;;15.16;79.93;102163.22;5114119;28;20038;-60
2023/09/14 01:10:00;;;;;;;6.28;2.90;;;;;;;15.18;79.04;102162.38;5114294;28;20492;-60
2023/09/14 01:12:26;;;;;;;4.70;2.47;;;;;;;15.11;78.51;102159.63;5113832;28;20039;-59
2023/09/14 01:15:02;;;;;;;6.28;2.97;;;;;;;15.06;79.27;102158.66;5113891;28;20030;-60
2023/09/14 01:17:38;;;;;;;7.97;2.80;;;;;;;14.94;79.49;102167.38;5113918;28;20434;-61
2023/09/14 01:20:30;;;;;;;4.07;2.75;;;;;;;14.85;79.84;102168.13;5113842;28;20039;-60
2023/09/14 01:23:14;;;;;;;8.35;3.00;;;;;;;14.78;80.23;102164.50;5114076;28;20059;-59
2023/09/14 01:25:45;;;;;;;10.63;2.80;;;;;;;14.76;80.24;102170.66;5113547;28;20040;-60
2023/09/14 01:28:12;;;;;;;6.20;3.03;;;;;;;14.73;80.53;102165.28;5113592;28;20430;-60
2023/09/14 01:30:38;;;;;;;3.97;2.80;;;;;;;14.70;80.47;102173.25;5113827;28;20034;-59
2023/09/14 01:33:09;;;;;;;6.65;3.10;;;;;;;14.62;80.86;102175.78;5113599;28;20027;-60
2023/09/14 01:36:13;;;;;;;5.93;2.88;;;;;;;14.61;81.08;102170.47;5113538;28;20028;-59
2023/09/14 01:38:40;;;;;;;6.70;2.65;;;;;;;14.58;80.70;102165.06;5108739;28;20031;-60
2023/09/14 01:41:06;;;;;;;4.97;2.90;;;;;;;14.57;81.16;102168.63;5113612;28;20028;-61
2023/09/14 01:43:33;;;;;;;4.75;2.60;;;;;;;14.64;80.71;102174.03;5113363;28;20032;-59
2023/09/14 01:45:59;;;;;;;8.45;3.00;;;;;;;14.74;80.65;102168.00;5112556;28;20488;-59
2023/09/14 01:48:24;;;;;;;4.55;2.70;;;;;;;14.73;79.99;102163.56;5113251;28;20027;-60
2023/09/14 01:50:50;;;;;;;5.80;2.50;;;;;;;14.81;79.95;102168.97;5112204;28;20423;-59
2023/09/14 01:53:15;;;;;;;6.03;2.80;;;;;;;14.74;79.74;102164.44;5113290;28;20027;-59
2023/09/14 01:55:41;;;;;;;6.72;2.80;;;;;;;14.78;79.08;102166.28;5113444;28;20024;-60
2023/09/14 01:58:06;;;;;;;5.38;2.72;;;;;;;14.70;79.46;102163.50;5113407;28;20110;-59
2023/09/14 02:00:32;;;;;;;4.88;2.53;;;;;;;14.65;79.77;102167.88;5113364;28;20438;-59
2023/09/14 02:02:57;;;;;;;6.10;2.50;;;;;;;14.62;79.47;102169.56;5113233;28;20040;-60
2023/09/14 02:05:23;;;;;;;4.30;2.40;;;;;;;14.61;79.74;102170.47;5113282;28;20031;-60
2023/09/14 02:07:48;;;;;;;3.22;2.28;;;;;;;14.57;79.12;102172.16;5113305;28;20107;-59
2023/09/14 02:10:17;;;;;;;2.95;2.10;;;;;;;14.52;79.29;102168.56;5113288;28;20476;-59
2023/09/14 02:12:42;;;;;;;3.00;2.05;;;;;;;14.43;79.58;102171.00;5113199;28;20109;-60
2023/09/14 02:15:08;;;;;;;2.95;2.10;;;;;;;14.39;79.85;102172.75;5113347;28;20052;-60
2023/09/14 02:17:34;;;;;;;3.17;1.90;;;;;;;14.40;80.16;102171.88;5113278;28;20031;-60
2023/09/14 02:19:59;;;;;;;4.65;1.92;;;;;;;14.38;80.34;102165.59;5113050;28;20028;-59
2023/09/14 02:22:25;;;;;;;2.60;2.00;;;;;;;14.40;79.26;102155.03;5113121;28;20023;-59
2023/09/14 02:24:51;;;;;;;4.28;2.08;;;;;;;14.40;79.22;102160.34;5111388;28;20406;-58
2023/09/14 02:27:16;;;;;;;4.07;1.83;;;;;;;14.46;79.65;102160.41;5113283;28;20393;-59
2023/09/14 02:29:41;;;;;;;5.07;1.90;;;;;;;14.45;79.42;102154.22;5113306;28;20045;-59
2023/09/14 02:32:07;;;;;;;2.72;2.00;;;;;;;14.40;78.92;102155.03;5113348;28;20117;-60
2023/09/14 02:34:33;;;;;;;3.03;1.85;;;;;;;14.35;78.78;102151.41;5113001;28;20037;-59
2023/09/14 02:36:58;;;;;;;3.33;1.83;;;;;;;14.39;79.39;102153.19;5111769;28;20031;-58
2023/09/14 02:39:24;;;;;;;3.88;2.10;;;;;;;14.41;78.50;102147.06;5113046;28;20030;-60
2023/09/14 02:41:49;;;;;;;2.28;1.95;;;;;;;14.34;78.84;102150.47;5111864;28;20055;-59
2023/09/14 02:44:14;;;;;;;3.53;2.10;;;;;;;14.29;79.28;102150.41;5113022;28;20477;-60
2023/09/14 02:46:40;;;;;;;2.88;2.00;;;;;;;14.25;79.49;102145.00;5112928;28;20055;-60
2023/09/14 02:49:05;;;;;;;3.13;2.03;;;;;;;14.16;79.92;102151.06;5112844;28;20067;-58
2023/09/14 02:51:30;;;;;;;2.97;2.17;;;;;;;14.01;80.46;102146.41;5112902;28;20103;-59
2023/09/14 02:53:56;;;;;;;5.18;2.30;;;;;;;13.94;80.77;102151.56;5113025;28;20036;-59
2023/09/14 02:56:21;;;;;;;2.63;2.17;;;;;;;13.82;81.15;102146.03;5112822;28;20514;-60
2023/09/14 02:58:47;;;;;;;5.88;2.20;;;;;;;13.74;81.09;102144.13;5116431;28;20038;-60
2023/09/14 03:01:12;;;;;;;4.18;2.20;;;;;;;13.68;81.35;102144.03;5116602;28;20568;-60
2023/09/14 03:03:39;;;;;;;4.43;2.20;;;;;;;13.59;81.77;102148.28;5116335;28;20032;-59
2023/09/14 03:06:08;;;;;;;4.03;2.13;;;;;;;13.55;81.83;102143.75;5116735;28;20024;-58
2023/09/14 03:08:33;;;;;;;4.82;2.20;;;;;;;13.63;81.91;102153.66;5116635;28;20377;-59
2023/09/14 03:10:59;;;;;;;3.10;2.08;;;;;;;13.68;81.03;102135.16;5116313;28;20028;-59
2023/09/14 03:13:25;;;;;;;3.42;2.45;;;;;;;13.78;81.20;102142.41;5115983;28;20534;-58
2023/09/14 03:15:58;;;;;;;3.33;1.90;;;;;;;13.88;80.82;102141.75;5116258;28;20024;-59
2023/09/14 03:18:25;;;;;;;2.50;2.00;;;;;;;13.88;80.35;102140.84;5116161;28;20027;-59
2023/09/14 03:20:55;;;;;;;5.05;1.92;;;;;;;13.92;79.96;102148.00;5116153;28;20023;-59
2023/09/14 03:23:21;;;;;;;4.20;2.10;;;;;;;13.90;79.68;102144.41;5116365;28;20107;-60
2023/09/14 03:25:48;;;;;;;2.92;2.08;;;;;;;13.95;79.85;102150.69;5115997;28;20463;-60
2023/09/14 03:28:14;;;;;;;3.90;2.00;;;;;;;13.89;79.82;102146.19;5116005;28;20023;-59
2023/09/14 03:30:40;;;;;;;3.53;2.00;;;;;;;13.75;79.93;102150.34;5115995;28;20043;-60
2023/09/14 03:33:05;;;;;;;3.13;1.90;;;;;;;13.57;80.29;102152.63;5116032;28;20121;-60
2023/09/14 03:35:31;;;;;;;4.70;2.00;;;;;;;13.55;80.88;102160.59;5115835;28;20031;-60
2023/09/14 03:37:56;;;;;;;9.85;2.33;;;;;;;13.53;80.63;102159.66;5115750;28;20039;-59
2023/09/14 03:40:22;;;;;;;2.33;2.00;;;;;;;13.49;80.57;102156.06;5115705;28;20036;-58
2023/09/14 03:42:48;;;;;;;3.70;2.03;;;;;;;13.40;81.05;102155.84;5115767;28;20024;-59
2023/09/14 03:45:14;;;;;;;5.50;2.00;;;;;;;13.38;81.42;102154.94;5115677;28;20065;-59
2023/09/14 03:47:39;;;;;;;3.17;2.00;;;;;;;13.33;81.62;102153.97;5115738;28;20027;-59
2023/09/14 03:50:05;;;;;;;2.35;1.70;;;;;;;13.32;81.75;102154.84;5115536;28;20070;-60
2023/09/14 03:52:31;;;;;;;3.00;1.90;;;;;;;13.34;81.54;102149.53;5115536;28;20110;-59
2023/09/14 03:54:56;;;;;;;7.90;2.08;;;;;;;13.36;81.36;102154.03;5115543;28;20114;-59
2023/09/14 03:57:24;;;;;;;2.47;1.70;;;;;;;13.38;81.32;102154.06;5114209;28;20481;-60
2023/09/14 03:59:51;;;;;;;3.45;1.90;;;;;;;13.35;81.48;102151.31;5115655;28;20070;-59
2023/09/14 04:02:17;;;;;;;6.18;2.13;;;;;;;13.38;81.46;102146.09;5115611;28;20036;-60
2023/09/14 04:04:42;;;;;;;3.55;2.03;;;;;;;13.52;81.43;102147.25;5115480;28;20538;-60
2023/09/14 04:07:08;;;;;;;2.63;2.00;;;;;;;13.39;81.17;102154.06;5115377;28;20511;-60
2023/09/14 04:09:34;;;;;;;5.10;2.30;;;;;;;13.46;81.44;102149.78;5114178;28;20457;-59
2023/09/14 04:11:59;;;;;;;3.90;2.33;;;;;;;13.55;80.72;102151.72;5114951;28;20024;-59
2023/09/14 04:14:25;;;;;;;4.00;2.30;;;;;;;13.50;80.46;102147.22;5115014;28;20036;-60
2023/09/14 04:16:58;;;;;;;4.85;2.47;;;;;;;13.50;80.52;102141.03;5115147;28;20028;-60
2023/09/14 04:19:24;;;;;;;8.48;2.45;;;;;;;13.47;80.40;102144.50;5115128;28;20027;-59
2023/09/14 04:21:49;;;;;;;5.93;2.63;;;;;;;13.43;80.57;102155.03;5114958;28;20088;-59
2023/09/14 04:24:15;;;;;;;5.80;2.28;;;;;;;13.46;80.69;102148.03;5115130;28;20031;-60
2023/09/14 04:26:40;;;;;;;4.68;2.35;;;;;;;13.44;80.47;102149.75;5114846;28;20451;-59
2023/09/14 04:29:06;;;;;;;6.38;2.25;;;;;;;13.44;80.03;102152.41;5115038;28;20031;-59
2023/09/14 04:31:31;;;;;;;4.47;2.30;;;;;;;13.46;80.27;102152.44;5115060;28;20451;-61
2023/09/14 04:33:57;;;;;;;5.10;2.60;;;;;;;13.44;79.97;102147.09;5114749;28;20058;-60
2023/09/14 04:36:22;;;;;;;6.60;2.40;;;;;;;13.42;79.90;102146.19;5115008;28;20032;-59
2023/09/14 04:38:48;;;;;;;6.22;2.70;;;;;;;13.39;80.02;102159.38;5114692;28;20053;-60
2023/09/14 04:41:14;;;;;;;6.75;2.58;;;;;;;13.37;80.01;102158.47;5114823;28;20023;-60
2023/09/14 04:43:39;;;;;;;4.72;2.30;;;;;;;13.33;79.86;102156.63;5114669;28;20415;-59
2023/09/14 04:46:05;;;;;;;7.40;2.50;;;;;;;13.27;79.96;102157.41;5114453;28;20077;-60
2023/09/14 04:48:31;;;;;;;4.53;2.83;;;;;;;13.23;80.50;102150.22;5114380;28;20050;-60
2023/09/14 04:50:57;;;;;;;6.57;2.58;;;;;;;13.25;80.45;102155.56;5114410;28;20108;-59
2023/09/14 04:53:27;;;;;;;6.80;2.85;;;;;;;13.31;80.67;102152.13;5114565;28;20031;-60
2023/09/14 04:55:53;;;;;;;4.65;2.58;;;;;;;13.31;79.86;102157.44;5114218;28;20574;-59
2023/09/14 04:58:18;;;;;;;5.63;2.63;;;;;;;13.28;79.45;102156.53;5114496;28;20031;-60
2023/09/14 05:00:47;;;;;;;5.28;2.53;;;;;;;13.26;79.64;102162.66;5113070;28;20351;-59
2023/09/14 05:03:12;;;;;;;6.70;2.47;;;;;;;13.23;79.15;102158.19;5114338;28;20122;-60
2023/09/14 05:05:38;;;;;;;2.92;2.08;;;;;;;13.15;79.92;102158.88;5112817;28;20513;-58
2023/09/14 05:08:03;;;;;;;3.47;2.30;;;;;;;13.14;80.19;102162.34;5113894;28;20081;-60
2023/09/14 05:10:29;;;;;;;3.15;2.20;;;;;;;13.11;79.90;102160.56;5113897;28;20066;-59
2023/09/14 05:12:54;;;;;;;2.75;2.20;;;;;;;13.10;79.91;102155.19;5113175;28;20031;-59
2023/09/14 05:15:19;;;;;;;3.42;2.33;;;;;;;13.07;80.10;102155.16;5113434;28;20111;-58
2023/09/14 05:17:45;;;;;;;2.90;2.28;;;;;;;13.04;79.52;102162.16;5112295;28;20330;-59
2023/09/14 05:20:11;;;;;;;2.78;2.30;;;;;;;12.99;79.74;102154.97;5113144;28;20027;-59
2023/09/14 05:22:38;;;;;;;3.60;2.60;;;;;;;13.05;80.28;102163.06;5113434;28;20509;-58
2023/09/14 05:25:05;;;;;;;7.13;2.45;;;;;;;13.10;79.85;102163.16;5113073;28;20034;-59
2023/09/14 05:27:38;;;;;;;3.92;2.38;;;;;;;13.09;80.19;102174.63;5113288;28;20038;-59
2023/09/14 05:30:05;;;;;;;3.92;2.80;;;;;;;13.08;79.95;102173.75;5113210;28;20386;-60
2023/09/14 05:32:30;;;;;;;6.43;2.50;;;;;;;13.05;79.99;102173.66;5113037;28;20452;-59
2023/09/14 05:34:56;;;;;;;3.55;2.45;;;;;;;13.02;80.16;102184.22;5113267;28;20028;-59
2023/09/14 05:37:21;;;;;;;4.13;2.50;;;;;;;13.03;80.95;102183.38;5113178;28;20031;-59
2023/09/14 05:39:48;;;;;;;4.63;2.67;;;;;;;13.09;81.09;102187.91;5113343;28;20051;-60
2023/09/14 05:42:13;;;;;;;3.70;2.65;;;;;;;13.02;81.07;102194.84;5113072;28;20173;-59
2023/09/14 05:44:39;;;;;;;5.40;2.70;;;;;;;12.97;81.34;102189.41;5112952;28;20073;-60
2023/09/14 05:47:04;;;;;;;3.22;2.45;;;;;;;12.98;81.63;102193.00;5113233;28;20032;-59
2023/09/14 05:49:29;;;;;;;3.55;2.70;;;;;;;13.06;82.07;102186.09;5112976;28;20034;-59
2023/09/14 05:51:55;;;;;;;4.20;2.60;;;;;;;13.27;81.87;102190.97;5112709;28;20031;-59
2023/09/14 05:54:20;;;;;;;6.00;2.75;;;;;;;13.42;80.78;102186.00;5113132;28;20085;-59
2023/09/14 05:56:45;;;;;;;4.82;2.70;;;;;;;13.60;81.00;102188.13;5113198;28;20031;-60
2023/09/14 05:59:12;;;;;;;4.10;2.72;;;;;;;13.69;80.72;102187.41;5112865;28;20024;-60
2023/09/14 06:01:37;;;;;;;6.20;2.67;;;;;;;13.78;80.53;102192.91;5113150;28;20036;-59
2023/09/14 06:04:03;;;;;;;4.60;2.78;;;;;;;13.88;80.62;102194.00;5113018;28;20082;-60
2023/09/14 06:06:28;;;;;;;4.47;2.60;;;;;;;13.94;80.66;102191.44;5112880;28;20426;-61
2023/09/14 06:08:53;;;;;;;5.78;2.80;;;;;;;14.01;80.71;102194.25;5112785;28;20544;-60
2023/09/14 06:11:19;;;;;;;8.38;3.17;;;;;;;14.14;80.70;102194.47;5112836;28;20119;-63
2023/09/14 06:13:44;;;;;;;8.00;3.40;;;;;;;14.31;81.09;102187.69;5112563;28;20107;-61
2023/09/14 06:16:11;;;;;;;7.22;3.30;;;;;;;14.50;80.93;102191.56;5112724;28;20385;-59
2023/09/14 06:18:36;;;;;;;9.25;3.05;;;;;;;14.65;80.56;102193.56;5111253;28;20028;-60
2023/09/14 06:21:01;;;;;;;8.13;3.60;;;;;;;14.76;81.41;102187.53;5111433;28;20027;-61
2023/09/14 06:23:27;;;;;;;8.63;3.35;;;;;;;14.93;81.13;102190.44;5112622;28;20085;-60
2023/09/14 06:25:52;;;;;;;5.90;3.90;;;;;;;15.07;81.19;102198.59;5112401;28;20071;-60
2023/09/14 06:28:18;;;;;;;5.95;3.75;;;;;;;15.24;80.80;102198.84;5113094;28;20089;-61
2023/09/14 06:30:43;;;;;;;7.47;3.90;;;;;;;15.42;80.64;102190.22;5112901;28;20590;-60
2023/09/14 06:33:08;;;;;;;7.03;4.07;;;;;;;15.56;80.30;102188.59;5115125;28;20016;-61
2023/09/14 06:35:34;;;;;;;8.98;4.30;;;;;;;15.65;79.84;102190.50;5115352;28;20027;-60
2023/09/14 06:37:59;;;;;;;7.18;3.90;;;;;;;15.80;79.96;102198.66;5116604;28;20034;-59
2023/09/14 06:40:25;;;;;;;6.95;4.00;;;;;;;15.93;79.90;102194.34;5116387;28;20067;-61
2023/09/14 06:42:50;;;;;;;8.65;4.05;;;;;;;16.08;79.96;102201.63;5116305;28;20048;-60
2023/09/14 06:45:15;;;;;;;9.40;4.13;;;;;;;16.23;79.54;102201.75;5116294;28;20059;-61
2023/09/14 06:47:41;;;;;;;7.43;4.25;;;;;;;16.35;79.63;102192.97;5116212;28;20031;-62
2023/09/14 06:50:07;;;;;;;9.68;4.75;;;;;;;16.49;79.40;102199.34;5116546;28;20423;-59
2023/09/14 06:52:34;;;;;;;10.38;4.13;;;;;;;16.62;78.83;102195.88;5116393;28;20078;-60
2023/09/14 06:54:59;;;;;;;11.98;5.68;;;;;;;16.71;78.72;102195.94;5116729;28;20417;-60
2023/09/14 06:57:26;;;;;;;9.65;4.45;;;;;;;16.81;78.66;102201.38;5116000;28;20048;-60
2023/09/14 06:59:51;;;;;;;8.65;4.40;;;;;;;16.93;78.97;102190.78;5116129;28;20041;-60
2023/09/14 07:02:17;;;;;;;11.55;5.03;;;;;;;17.02;78.61;102204.19;5116132;28;20046;-61
2023/09/14 07:04:42;;;;;;;12.38;5.28;;;;;;;17.23;78.25;102198.06;5115953;28;20085;-59
2023/09/14 07:07:08;;;;;;;10.23;4.80;;;;;;;17.42;77.86;102204.38;5116016;28;20435;-60
2023/09/14 07:09:33;;;;;;;8.98;4.72;;;;;;;17.58;77.28;102206.22;5116172;28;20481;-60
2023/09/14 07:11:59;;;;;;;8.85;4.97;;;;;;;17.61;77.38;102198.22;5115744;28;20489;-60
2023/09/14 07:14:24;;;;;;;10.85;4.97;;;;;;;17.69;76.87;102207.16;5114494;28;20023;-59
2023/09/14 07:16:50;;;;;;;13.23;4.88;;;;;;;17.81;77.36;102194.72;5116146;28;20027;-60
2023/09/14 07:19:15;;;;;;;10.93;4.97;;;;;;;17.89;76.86;102191.19;5115873;28;20106;-60
2023/09/14 07:21:40;;;;;;;9.80;5.10;;;;;;;17.99;77.09;102203.69;5115807;28;20410;-60
2023/09/14 07:24:07;;;;;;;11.63;4.90;;;;;;;18.03;76.50;102193.91;5115568;28;20546;-61
2023/09/14 07:26:34;;;;;;;8.82;5.18;;;;;;;18.20;76.89;102196.56;5115380;28;20497;-59
2023/09/14 07:28:59;;;;;;;11.68;5.40;;;;;;;18.35;76.70;102201.94;5115665;28;20493;-60
2023/09/14 07:31:25;;;;;;;11.50;5.68;;;;;;;18.53;75.33;102204.59;5114335;28;20030;-60
2023/09/14 07:33:52;;;;;;;16.58;5.18;;;;;;;18.71;76.85;102195.72;5115354;28;20020;-59
2023/09/14 07:36:17;;;;;;;10.98;5.65;;;;;;;18.84;74.16;102207.28;5114999;28;20052;-59
2023/09/14 07:38:43;;;;;;;10.25;5.45;;;;;;;19.01;73.89;102209.94;5115518;28;20105;-60
2023/09/14 07:41:08;;;;;;;9.13;5.20;;;;;;;19.14;73.33;102208.13;5115254;28;20023;-60
2023/09/14 07:43:33;;;;;;;11.98;5.70;;;;;;;19.19;74.83;102207.22;5113865;28;20077;-60
2023/09/14 07:45:59;;;;;;;11.00;5.57;;;;;;;19.37;73.10;102211.63;5115438;28;20024;-60
2023/09/14 07:48:24;;;;;;;14.20;5.75;;;;;;;19.62;73.08;102214.25;5115233;28;20131;-59
2023/09/14 07:50:50;;;;;;;11.63;6.18;;;;;;;19.72;72.18;102214.16;5115232;28;20020;-60
2023/09/14 07:53:16;;;;;;;10.85;6.25;;;;;;;19.73;70.56;102213.25;5115322;28;20081;-59
2023/09/14 07:55:42;;;;;;;14.98;6.47;;;;;;;19.74;71.15;102212.38;5115067;28;20035;-61
2023/09/14 07:58:07;;;;;;;14.13;6.45;;;;;;;19.62;72.31;102217.81;5115272;28;20377;-60
2023/09/14 08:00:36;;;;;;;13.73;6.43;;;;;;;19.58;73.52;102223.16;5114857;28;20035;-60
2023/09/14 08:03:02;;;;;;;14.50;6.28;;;;;;;19.69;73.67;102221.34;5115174;28;20111;-60
2023/09/14 08:05:28;;;;;;;12.05;6.22;;;;;;;19.77;72.50;102223.06;5113566;28;20059;-59
2023/09/14 08:07:53;;;;;;;15.63;5.68;;;;;;;19.75;72.20;102221.31;5114893;28;20032;-60
2023/09/14 08:10:19;;;;;;;15.63;6.97;;;;;;;19.82;71.76;102222.16;5114815;28;20027;-60
2023/09/14 08:12:44;;;;;;;14.93;6.75;;;;;;;19.73;70.90;102217.75;5114795;28;20374;-60
2023/09/14 08:15:11;;;;;;;11.15;6.47;;;;;;;19.69;71.22;102215.97;5114706;28;20367;-60
2023/09/14 08:17:38;;;;;;;11.10;6.70;;;;;;;19.87;70.80;102213.22;5114552;28;20019;-60
2023/09/14 08:20:04;;;;;;;12.65;6.30;;;;;;;19.92;71.59;102208.72;5114585;28;20031;-59
2023/09/14 08:22:30;;;;;;;12.88;6.72;;;;;;;19.86;70.54;102222.13;5114522;28;20043;-60
2023/09/14 08:25:00;;;;;;;12.35;6.68;;;;;;;19.95;70.99;102205.97;5114828;28;20027;-59
2023/09/14 08:27:26;;;;;;;14.65;6.88;;;;;;;19.98;72.44;102214.00;5112957;28;20038;-59
2023/09/14 08:29:51;;;;;;;11.73;6.70;;;;;;;20.19;72.64;102217.47;5114461;28;20408;-58
2023/09/14 08:32:17;;;;;;;15.68;7.07;;;;;;;20.08;72.23;102213.94;5114144;28;20438;-59
2023/09/14 08:34:42;;;;;;;18.17;7.35;;;;;;;20.13;70.84;102223.78;5114034;28;20089;-60
2023/09/14 08:37:09;;;;;;;11.45;7.03;;;;;;;20.40;70.61;102219.09;5114237;28;20381;-58
2023/09/14 08:39:36;;;;;;;15.93;7.13;;;;;;;20.45;70.47;102226.19;5114177;28;20326;-62
2023/09/14 08:42:01;;;;;;;14.07;7.40;;;;;;;20.74;70.95;102225.09;5113906;28;20020;-60
2023/09/14 08:44:28;;;;;;;13.70;7.45;;;;;;;21.00;69.99;102228.41;5114094;28;20080;-59
2023/09/14 08:46:57;;;;;;;15.95;6.90;;;;;;;21.15;69.14;102232.72;5112812;28;20036;-59
2023/09/14 08:49:24;;;;;;;13.95;7.90;;;;;;;21.19;68.32;102229.09;5112838;28;20023;-59
2023/09/14 08:51:52;;;;;;;11.70;7.20;;;;;;;21.30;67.21;102223.59;5114144;28;20024;-59
2023/09/14 08:54:18;;;;;;;14.85;7.43;;;;;;;21.39;66.10;102218.16;5113741;28;20028;-59
2023/09/14 08:56:44;;;;;;;12.30;7.28;;;;;;;21.47;66.68;102215.38;5113783;28;20421;-59
2023/09/14 08:59:11;;;;;;;15.88;8.02;;;;;;;21.36;67.37;102217.28;5113840;28;20477;-60
2023/09/14 09:01:37;;;;;;;15.50;7.78;;;;;;;21.66;66.50;102216.91;5113730;28;20016;-60
2023/09/14 09:04:03;;;;;;;16.50;8.60;;;;;;;21.77;65.21;102214.06;5113677;28;20031;-61
2023/09/14 09:06:30;;;;;;;15.02;8.30;;;;;;;21.94;62.84;102213.84;5113906;28;20105;-59
2023/09/14 09:08:59;;;;;;;12.80;8.40;;;;;;;22.05;63.48;102210.97;5113979;28;20029;-59
2023/09/14 09:11:24;;;;;;;12.98;8.07;;;;;;;22.38;63.95;102214.97;5113594;28;20526;-59
2023/09/14 09:13:49;;;;;;;17.10;8.55;;;;;;;22.66;63.19;102210.91;5113292;28;20023;-59
2023/09/14 09:16:15;;;;;;;14.93;8.35;;;;;;;23.11;61.60;102207.41;5113801;28;20538;-60
2023/09/14 09:19:13;;;;;;;16.63;9.15;;;;;;;23.21;61.44;102209.91;5113542;28;20034;-59
2023/09/14 09:21:41;;;;;;;18.60;10.50;;;;;;;23.08;57.60;102212.84;5068797;28;20040;-59
2023/09/14 09:24:07;;;;;;;17.98;10.05;;;;;;;23.20;58.51;102205.41;5113423;28;20102;-58
2023/09/14 09:26:38;;;;;;;20.45;9.75;;;;;;;23.21;58.15;102199.09;5113100;28;20044;-60
2023/09/14 09:29:13;;;;;;;16.30;9.10;;;;;;;23.63;58.76;102196.41;5113403;28;20092;-58
2023/09/14 09:31:41;;;;;;;14.68;8.50;;;;;;;23.73;59.56;102191.75;5113251;28;20019;-59
2023/09/14 09:34:08;;;;;;;16.27;9.13;;;;;;;23.79;56.91;102198.78;5113076;28;20028;-59
2023/09/14 09:36:34;;;;;;;16.42;9.38;;;;;;;23.57;56.43;102201.06;5113193;28;20469;-58
2023/09/14 09:39:04;;;;;;;14.57;8.88;;;;;;;23.47;56.87;102203.06;5113478;28;20031;-59
2023/09/14 09:41:34;;;;;;;17.25;8.90;;;;;;;23.69;55.64;102198.13;5113158;28;20534;-59
2023/09/14 09:44:05;;;;;;;13.43;8.00;;;;;;;23.99;55.24;102200.13;5111774;28;20027;-60
2023/09/14 09:46:34;;;;;;;15.07;7.60;;;;;;;24.23;53.12;102200.44;5113389;28;20073;-59
2023/09/14 09:49:00;;;;;;;8.07;4.93;;;;;;;24.32;50.18;102191.22;5113096;28;20103;-60
2023/09/14 09:51:25;;;;;;;9.48;6.55;;;;;;;24.68;49.78;102197.53;5111793;28;20051;-60
2023/09/14 09:54:05;;;;;;;15.38;7.00;;;;;;;25.16;50.97;102180.91;5112823;28;20119;-60
2023/09/14 09:56:33;;;;;;;13.05;8.05;;;;;;;24.97;50.31;102191.34;5113246;28;20024;-59
2023/09/14 09:59:02;;;;;;;12.60;7.68;;;;;;;24.96;49.66;102184.13;5113052;28;20055;-60
2023/09/14 10:01:28;;;;;;;15.10;7.10;;;;;;;25.36;48.99;102183.94;5112998;28;20107;-60
2023/09/14 10:03:56;;;;;;;13.90;7.38;;;;;;;25.19;47.99;102179.00;5111467;28;20043;-60
2023/09/14 10:06:21;;;;;;;12.00;6.55;;;;;;;25.21;47.55;102178.94;5112839;28;20489;-60
2023/09/14 10:08:57;;;;;;;11.68;6.35;;;;;;;25.10;48.18;102184.69;5116669;28;20026;-59
2023/09/14 10:11:24;;;;;;;15.07;6.32;;;;;;;24.54;47.79;102188.88;5116972;28;20023;-60
2023/09/14 10:13:50;;;;;;;12.30;4.65;;;;;;;24.29;46.26;102184.09;5116745;28;20523;-60
2023/09/14 10:16:21;;;;;;;7.70;4.25;;;;;;;24.56;46.22;102185.22;5116852;28;20038;-60
2023/09/14 10:18:49;;;;;;;12.60;5.25;;;;;;;24.89;45.67;102175.31;5116977;28;20023;-59
2023/09/14 10:21:16;;;;;;;12.48;6.40;;;;;;;24.96;47.43;102184.13;5117122;28;20056;-60
2023/09/14 10:23:43;;;;;;;11.32;6.57;;;;;;;24.92;47.55;102179.75;5116890;28;20028;-60
2023/09/14 10:26:09;;;;;;;11.50;6.90;;;;;;;25.26;48.79;102177.00;5115226;28;20397;-60
2023/09/14 10:28:36;;;;;;;13.15;6.53;;;;;;;25.62;45.85;102172.31;5117066;28;20051;-61
2023/09/14 10:31:02;;;;;;;12.70;6.20;;;;;;;26.38;45.70;102171.66;5116623;28;20055;-59
2023/09/14 10:33:28;;;;;;;10.73;5.95;;;;;;;26.42;43.19;102176.03;5116683;28;20031;-61
2023/09/14 10:35:55;;;;;;;12.48;6.18;;;;;;;26.52;44.36;102176.63;5116396;28;20154;-61
2023/09/14 10:38:23;;;;;;;12.30;5.10;;;;;;;26.42;43.43;102173.34;5116556;28;20020;-60
2023/09/14 10:40:52;;;;;;;9.85;5.75;;;;;;;25.70;43.87;102161.25;5116379;28;20020;-61
2023/09/14 10:43:17;;;;;;;8.05;4.95;;;;;;;25.45;43.06;102164.69;5116486;28;20027;-59
2023/09/14 10:45:44;;;;;;;10.90;5.18;;;;;;;25.27;46.42;102161.63;5116500;28;20031;-59
2023/09/14 10:48:16;;;;;;;8.07;4.70;;;;;;;24.98;46.35;102155.25;5116418;28;20115;-59
2023/09/14 10:50:42;;;;;;;7.78;4.50;;;;;;;25.02;44.84;102158.75;5116217;28;20103;-60
2023/09/14 10:53:08;;;;;;;8.15;4.35;;;;;;;24.82;44.30;102160.19;5116351;28;20115;-61
2023/09/14 10:55:35;;;;;;;11.02;4.93;;;;;;;24.91;43.76;102154.50;5116517;28;20059;-60
2023/09/14 10:58:02;;;;;;;7.55;4.45;;;;;;;25.02;43.74;102147.94;5116005;28;20473;-60
2023/09/14 11:00:36;;;;;;;9.35;4.50;;;;;;;24.93;44.54;102143.69;5116119;28;20028;-60
2023/09/14 11:03:02;;;;;;;9.10;4.90;;;;;;;25.19;44.44;102151.94;5116408;28;20032;-61
2023/09/14 11:05:43;;;;;;;6.43;4.35;;;;;;;25.39;45.25;102145.91;5116061;28;20465;-60
2023/09/14 11:08:10;;;;;;;8.52;5.18;;;;;;;25.52;44.23;102140.13;5114649;28;20114;-60
2023/09/14 11:10:37;;;;;;;10.40;4.80;;;;;;;25.53;42.59;102144.63;5116304;28;20054;-59
2023/09/14 11:13:21;;;;;;;7.97;4.75;;;;;;;25.59;43.86;102144.44;5115634;28;20031;-61
2023/09/14 11:15:47;;;;;;;7.18;4.63;;;;;;;25.17;44.37;102142.09;5116249;28;20111;-61
2023/09/14 11:18:20;;;;;;;8.70;4.75;;;;;;;25.07;44.81;102135.16;5115734;28;20031;-61
2023/09/14 11:20:46;;;;;;;9.85;5.13;;;;;;;25.02;43.77;102142.53;5116080;28;20028;-61